sensor_id;sensor_type;location;lat;lon;timestamp;temperature;humidity
36374;DHT22;22399;51.346;12.372;2023-08-12T00:00:04;20.10;78.20
36374;DHT22;22399;51.346;12.372;2023-08-12T00:02:42;20.00;78.40
36374;DHT22;22399;51.346;12.372;2023-08-12T00:05:11;19.90;78.60
36374;DHT22;22399;51.346;12.372;2023-08-12T00:07:40;20.00;78.80
36374;DHT22;22399;51.346;12.372;2023-08-12T00:10:11;20.00;79.00
36374;DHT22;22399;51.346;12.372;2023-08-12T00:12:41;20.00;79.10
36374;DHT22;22399;51.346;12.372;2023-08-12T00:15:10;20.00;79.30
36374;DHT22;22399;51.346;12.372;2023-08-12T00:17:39;20.00;79.30
36374;DHT22;22399;51.346;12.372;2023-08-12T00:20:09;20.00;79.40
36374;DHT22;22399;51.346;12.372;2023-08-12T00:22:39;20.00;79.60
36374;DHT22;22399;51.346;12.372;2023-08-12T00:25:08;20.00;79.60
36374;DHT22;22399;51.346;12.372;2023-08-12T00:27:37;20.00;79.80
36374;DHT22;22399;51.346;12.372;2023-08-12T00:30:07;20.00;80.00
36374;DHT22;22399;51.346;12.372;2023-08-12T00:32:36;20.00;80.20
36374;DHT22;22399;51.346;12.372;2023-08-12T00:35:05;20.00;80.40
36374;DHT22;22399;51.346;12.372;2023-08-12T00:37:34;20.00;80.50
36374;DHT22;22399;51.346;12.372;2023-08-12T00:40:04;20.00;80.80
36374;DHT22;22399;51.346;12.372;2023-08-12T00:42:33;20.00;81.00
36374;DHT22;22399;51.346;12.372;2023-08-12T00:45:01;19.90;81.10
36374;DHT22;22399;51.346;12.372;2023-08-12T00:47:32;19.90;81.30
36374;DHT22;22399;51.346;12.372;2023-08-12T00:50:00;19.90;81.50
36374;DHT22;22399;51.346;12.372;2023-08-12T00:52:29;19.90;81.70
36374;DHT22;22399;51.346;12.372;2023-08-12T00:54:58;19.80;81.90
36374;DHT22;22399;51.346;12.372;2023-08-12T00:57:26;19.80;82.20
36374;DHT22;22399;51.346;12.372;2023-08-12T00:59:56;19.80;82.30
36374;DHT22;22399;51.346;12.372;2023-08-12T01:02:24;19.70;82.60
36374;DHT22;22399;51.346;12.372;2023-08-12T01:04:54;19.70;82.90
36374;DHT22;22399;51.346;12.372;2023-08-12T01:07:22;19.80;83.20
36374;DHT22;22399;51.346;12.372;2023-08-12T01:09:51;19.70;83.30
36374;DHT22;22399;51.346;12.372;2023-08-12T01:12:24;19.70;83.40
36374;DHT22;22399;51.346;12.372;2023-08-12T01:14:58;19.70;83.70
36374;DHT22;22399;51.346;12.372;2023-08-12T01:17:31;19.70;84.60
36374;DHT22;22399;51.346;12.372;2023-08-12T01:20:03;19.70;84.00
36374;DHT22;22399;51.346;12.372;2023-08-12T01:22:37;19.60;84.20
36374;DHT22;22399;51.346;12.372;2023-08-12T01:25:08;19.60;84.50
36374;DHT22;22399;51.346;12.372;2023-08-12T01:27:37;19.60;84.70
36374;DHT22;22399;51.346;12.372;2023-08-12T01:30:07;19.60;85.00
36374;DHT22;22399;51.346;12.372;2023-08-12T01:32:41;19.60;85.20
36374;DHT22;22399;51.346;12.372;2023-08-12T01:35:14;19.60;85.40
36374;DHT22;22399;51.346;12.372;2023-08-12T01:37:46;19.60;85.70
36374;DHT22;22399;51.346;12.372;2023-08-12T01:40:17;19.60;85.90
36374;DHT22;22399;51.346;12.372;2023-08-12T01:42:48;19.50;86.10
36374;DHT22;22399;51.346;12.372;2023-08-12T01:45:18;19.50;86.40
36374;DHT22;22399;51.346;12.372;2023-08-12T01:47:47;19.50;86.60
36374;DHT22;22399;51.346;12.372;2023-08-12T01:50:18;19.50;86.90
36374;DHT22;22399;51.346;12.372;2023-08-12T01:52:48;19.50;87.00
36374;DHT22;22399;51.346;12.372;2023-08-12T01:55:18;19.50;87.30
36374;DHT22;22399;51.346;12.372;2023-08-12T01:57:47;19.50;87.60
36374;DHT22;22399;51.346;12.372;2023-08-12T02:00:15;19.40;87.70
36374;DHT22;22399;51.346;12.372;2023-08-12T02:02:44;19.40;88.00
36374;DHT22;22399;51.346;12.372;2023-08-12T02:05:15;19.50;88.30
36374;DHT22;22399;51.346;12.372;2023-08-12T02:07:43;19.40;88.30
36374;DHT22;22399;51.346;12.372;2023-08-12T02:10:12;19.40;88.60
36374;DHT22;22399;51.346;12.372;2023-08-12T02:12:43;19.40;88.70
36374;DHT22;22399;51.346;12.372;2023-08-12T02:15:11;19.40;89.00
36374;DHT22;22399;51.346;12.372;2023-08-12T02:17:39;19.40;89.20
36374;DHT22;22399;51.346;12.372;2023-08-12T02:20:08;19.40;89.50
36374;DHT22;22399;51.346;12.372;2023-08-12T02:22:37;19.30;89.80
36374;DHT22;22399;51.346;12.372;2023-08-12T02:25:06;19.30;90.00
36374;DHT22;22399;51.346;12.372;2023-08-12T02:27:35;19.30;90.20
36374;DHT22;22399;51.346;12.372;2023-08-12T02:30:06;19.20;90.30
36374;DHT22;22399;51.346;12.372;2023-08-12T02:32:35;19.20;90.50
36374;DHT22;22399;51.346;12.372;2023-08-12T02:35:04;19.20;90.60
36374;DHT22;22399;51.346;12.372;2023-08-12T02:37:34;19.20;90.70
36374;DHT22;22399;51.346;12.372;2023-08-12T02:40:03;19.10;90.80
36374;DHT22;22399;51.346;12.372;2023-08-12T02:42:33;19.20;91.00
36374;DHT22;22399;51.346;12.372;2023-08-12T02:45:02;19.20;91.10
36374;DHT22;22399;51.346;12.372;2023-08-12T02:47:31;19.20;91.20
36374;DHT22;22399;51.346;12.372;2023-08-12T02:50:00;19.30;91.30
36374;DHT22;22399;51.346;12.372;2023-08-12T02:52:29;19.30;91.20
36374;DHT22;22399;51.346;12.372;2023-08-12T02:54:58;19.30;91.30
36374;DHT22;22399;51.346;12.372;2023-08-12T02:57:26;19.30;91.40
36374;DHT22;22399;51.346;12.372;2023-08-12T02:59:54;19.30;91.40
36374;DHT22;22399;51.346;12.372;2023-08-12T03:02:23;19.30;91.50
36374;DHT22;22399;51.346;12.372;2023-08-12T03:04:53;19.30;91.50
36374;DHT22;22399;51.346;12.372;2023-08-12T03:07:22;19.30;91.60
36374;DHT22;22399;51.346;12.372;2023-08-12T03:09:51;19.30;91.70
36374;DHT22;22399;51.346;12.372;2023-08-12T03:12:19;19.30;91.70
36374;DHT22;22399;51.346;12.372;2023-08-12T03:14:48;19.30;91.80
36374;DHT22;22399;51.346;12.372;2023-08-12T03:17:17;19.30;91.80
36374;DHT22;22399;51.346;12.372;2023-08-12T03:19:45;19.30;91.90
36374;DHT22;22399;51.346;12.372;2023-08-12T03:22:16;19.30;92.00
36374;DHT22;22399;51.346;12.372;2023-08-12T03:24:44;19.30;92.00
36374;DHT22;22399;51.346;12.372;2023-08-12T03:27:13;19.30;92.00
36374;DHT22;22399;51.346;12.372;2023-08-12T03:29:43;19.30;92.00
36374;DHT22;22399;51.346;12.372;2023-08-12T03:32:13;19.40;92.00
36374;DHT22;22399;51.346;12.372;2023-08-12T03:34:42;19.40;92.00
36374;DHT22;22399;51.346;12.372;2023-08-12T03:37:12;19.40;92.00
36374;DHT22;22399;51.346;12.372;2023-08-12T03:39:42;19.40;92.00
36374;DHT22;22399;51.346;12.372;2023-08-12T03:42:11;19.40;92.00
36374;DHT22;22399;51.346;12.372;2023-08-12T03:44:39;19.40;92.00
36374;DHT22;22399;51.346;12.372;2023-08-12T03:47:08;19.40;92.00
36374;DHT22;22399;51.346;12.372;2023-08-12T03:49:37;19.40;92.00
36374;DHT22;22399;51.346;12.372;2023-08-12T03:52:06;19.40;92.10
36374;DHT22;22399;51.346;12.372;2023-08-12T03:54:36;19.40;92.10
36374;DHT22;22399;51.346;12.372;2023-08-12T03:57:06;19.40;92.10
36374;DHT22;22399;51.346;12.372;2023-08-12T03:59:34;19.40;92.10
36374;DHT22;22399;51.346;12.372;2023-08-12T04:02:03;19.40;92.20
36374;DHT22;22399;51.346;12.372;2023-08-12T04:04:33;19.40;92.20
36374;DHT22;22399;51.346;12.372;2023-08-12T04:07:01;19.40;92.30
36374;DHT22;22399;51.346;12.372;2023-08-12T04:09:30;19.40;92.30
36374;DHT22;22399;51.346;12.372;2023-08-12T04:11:58;19.40;92.30
36374;DHT22;22399;51.346;12.372;2023-08-12T04:14:28;19.40;92.40
36374;DHT22;22399;51.346;12.372;2023-08-12T04:16:57;19.40;92.40
36374;DHT22;22399;51.346;12.372;2023-08-12T04:19:25;19.50;92.40
36374;DHT22;22399;51.346;12.372;2023-08-12T04:21:54;19.50;92.40
36374;DHT22;22399;51.346;12.372;2023-08-12T04:24:22;19.60;92.40
36374;DHT22;22399;51.346;12.372;2023-08-12T04:26:51;19.60;92.40
36374;DHT22;22399;51.346;12.372;2023-08-12T04:29:20;19.60;92.30
36374;DHT22;22399;51.346;12.372;2023-08-12T04:31:50;19.60;92.30
36374;DHT22;22399;51.346;12.372;2023-08-12T04:34:19;19.70;92.30
36374;DHT22;22399;51.346;12.372;2023-08-12T04:36:50;19.70;92.30
36374;DHT22;22399;51.346;12.372;2023-08-12T04:39:18;19.70;92.20
36374;DHT22;22399;51.346;12.372;2023-08-12T04:41:47;19.70;92.20
36374;DHT22;22399;51.346;12.372;2023-08-12T04:44:16;19.80;92.20
36374;DHT22;22399;51.346;12.372;2023-08-12T04:46:45;19.80;92.50
36374;DHT22;22399;51.346;12.372;2023-08-12T04:49:16;19.80;92.10
36374;DHT22;22399;51.346;12.372;2023-08-12T04:51:45;19.80;92.10
36374;DHT22;22399;51.346;12.372;2023-08-12T04:54:13;19.90;92.10
36374;DHT22;22399;51.346;12.372;2023-08-12T04:56:42;19.90;92.00
36374;DHT22;22399;51.346;12.372;2023-08-12T04:59:10;20.00;92.00
36374;DHT22;22399;51.346;12.372;2023-08-12T05:01:39;20.00;91.80
36374;DHT22;22399;51.346;12.372;2023-08-12T05:04:30;20.10;91.80
36374;DHT22;22399;51.346;12.372;2023-08-12T05:06:58;20.20;91.60
36374;DHT22;22399;51.346;12.372;2023-08-12T05:09:27;20.30;91.50
36374;DHT22;22399;51.346;12.372;2023-08-12T05:11:55;20.30;91.40
36374;DHT22;22399;51.346;12.372;2023-08-12T05:14:24;20.40;91.30
36374;DHT22;22399;51.346;12.372;2023-08-12T05:16:52;20.40;91.20
36374;DHT22;22399;51.346;12.372;2023-08-12T05:19:21;20.40;91.20
36374;DHT22;22399;51.346;12.372;2023-08-12T05:21:50;20.50;91.10
36374;DHT22;22399;51.346;12.372;2023-08-12T05:24:19;20.50;91.10
36374;DHT22;22399;51.346;12.372;2023-08-12T05:26:47;20.50;91.00
36374;DHT22;22399;51.346;12.372;2023-08-12T05:29:16;20.60;90.90
36374;DHT22;22399;51.346;12.372;2023-08-12T05:31:44;20.60;90.70
36374;DHT22;22399;51.346;12.372;2023-08-12T05:34:13;20.70;90.70
36374;DHT22;22399;51.346;12.372;2023-08-12T05:36:41;20.70;90.60
36374;DHT22;22399;51.346;12.372;2023-08-12T05:39:11;20.70;90.50
36374;DHT22;22399;51.346;12.372;2023-08-12T05:41:40;20.80;90.50
36374;DHT22;22399;51.346;12.372;2023-08-12T05:44:09;20.80;90.30
36374;DHT22;22399;51.346;12.372;2023-08-12T05:46:37;20.90;90.30
36374;DHT22;22399;51.346;12.372;2023-08-12T05:49:05;21.00;90.10
36374;DHT22;22399;51.346;12.372;2023-08-12T05:51:34;21.20;90.00
36374;DHT22;22399;51.346;12.372;2023-08-12T05:54:03;21.50;89.20
36374;DHT22;22399;51.346;12.372;2023-08-12T05:56:33;21.90;88.30
36374;DHT22;22399;51.346;12.372;2023-08-12T05:59:01;22.30;87.40
36374;DHT22;22399;51.346;12.372;2023-08-12T06:01:30;22.70;86.30
36374;DHT22;22399;51.346;12.372;2023-08-12T06:03:58;22.90;85.00
36374;DHT22;22399;51.346;12.372;2023-08-12T06:06:26;23.00;84.50
36374;DHT22;22399;51.346;12.372;2023-08-12T06:08:55;23.00;84.60
36374;DHT22;22399;51.346;12.372;2023-08-12T06:11:23;23.30;84.40
36374;DHT22;22399;51.346;12.372;2023-08-12T06:13:53;23.40;83.50
36374;DHT22;22399;51.346;12.372;2023-08-12T06:16:21;23.60;83.10
36374;DHT22;22399;51.346;12.372;2023-08-12T06:18:50;23.70;82.40
36374;DHT22;22399;51.346;12.372;2023-08-12T06:21:19;23.60;82.00
36374;DHT22;22399;51.346;12.372;2023-08-12T06:23:47;24.50;82.80
36374;DHT22;22399;51.346;12.372;2023-08-12T06:26:16;25.70;78.90
36374;DHT22;22399;51.346;12.372;2023-08-12T06:28:44;25.50;77.70
36374;DHT22;22399;51.346;12.372;2023-08-12T06:31:14;25.10;78.00
36374;DHT22;22399;51.346;12.372;2023-08-12T06:33:43;24.70;78.70
36374;DHT22;22399;51.346;12.372;2023-08-12T06:36:11;24.50;79.40
36374;DHT22;22399;51.346;12.372;2023-08-12T06:38:39;24.40;79.60
36374;DHT22;22399;51.346;12.372;2023-08-12T06:41:08;24.20;79.80
36374;DHT22;22399;51.346;12.372;2023-08-12T06:43:36;24.10;80.20
36374;DHT22;22399;51.346;12.372;2023-08-12T06:46:05;24.10;80.30
36374;DHT22;22399;51.346;12.372;2023-08-12T06:48:35;24.10;80.30
36374;DHT22;22399;51.346;12.372;2023-08-12T06:51:04;24.10;80.20
36374;DHT22;22399;51.346;12.372;2023-08-12T06:53:37;24.10;80.00
36374;DHT22;22399;51.346;12.372;2023-08-12T06:56:06;24.20;79.90
36374;DHT22;22399;51.346;12.372;2023-08-12T06:58:35;24.10;79.60
36374;DHT22;22399;51.346;12.372;2023-08-12T07:01:04;24.00;79.40
36374;DHT22;22399;51.346;12.372;2023-08-12T07:03:34;24.00;79.60
36374;DHT22;22399;51.346;12.372;2023-08-12T07:06:03;23.90;79.60
36374;DHT22;22399;51.346;12.372;2023-08-12T07:08:31;23.90;79.80
36374;DHT22;22399;51.346;12.372;2023-08-12T07:10:59;23.80;79.80
36374;DHT22;22399;51.346;12.372;2023-08-12T07:13:28;23.80;79.60
36374;DHT22;22399;51.346;12.372;2023-08-12T07:15:57;23.80;79.70
36374;DHT22;22399;51.346;12.372;2023-08-12T07:18:25;23.80;79.70
36374;DHT22;22399;51.346;12.372;2023-08-12T07:20:55;23.80;79.50
36374;DHT22;22399;51.346;12.372;2023-08-12T07:23:25;23.80;79.60
36374;DHT22;22399;51.346;12.372;2023-08-12T07:25:54;23.80;79.50
36374;DHT22;22399;51.346;12.372;2023-08-12T07:28:23;23.90;79.50
36374;DHT22;22399;51.346;12.372;2023-08-12T07:30:52;24.00;79.40
36374;DHT22;22399;51.346;12.372;2023-08-12T07:33:20;24.10;79.20
36374;DHT22;22399;51.346;12.372;2023-08-12T07:35:49;24.10;78.80
36374;DHT22;22399;51.346;12.372;2023-08-12T07:38:18;24.20;78.70
36374;DHT22;22399;51.346;12.372;2023-08-12T07:40:48;24.30;78.40
36374;DHT22;22399;51.346;12.372;2023-08-12T07:43:16;24.40;78.20
36374;DHT22;22399;51.346;12.372;2023-08-12T07:45:45;24.20;77.80
36374;DHT22;22399;51.346;12.372;2023-08-12T07:48:22;24.20;78.00
36374;DHT22;22399;51.346;12.372;2023-08-12T07:50:56;24.20;78.00
36374;DHT22;22399;51.346;12.372;2023-08-12T07:53:26;24.20;78.00
36374;DHT22;22399;51.346;12.372;2023-08-12T07:55:54;24.30;77.90
36374;DHT22;22399;51.346;12.372;2023-08-12T07:58:23;24.40;77.70
36374;DHT22;22399;51.346;12.372;2023-08-12T08:00:52;24.50;77.50
36374;DHT22;22399;51.346;12.372;2023-08-12T08:03:22;24.70;77.30
36374;DHT22;22399;51.346;12.372;2023-08-12T08:05:50;24.70;77.20
36374;DHT22;22399;51.346;12.372;2023-08-12T08:08:19;24.80;77.00
36374;DHT22;22399;51.346;12.372;2023-08-12T08:10:49;24.80;76.90
36374;DHT22;22399;51.346;12.372;2023-08-12T08:13:17;24.80;76.80
36374;DHT22;22399;51.346;12.372;2023-08-12T08:15:46;24.80;76.60
36374;DHT22;22399;51.346;12.372;2023-08-12T08:18:15;24.80;76.60
36374;DHT22;22399;51.346;12.372;2023-08-12T08:20:44;24.70;76.40
36374;DHT22;22399;51.346;12.372;2023-08-12T08:23:12;24.70;76.40
36374;DHT22;22399;51.346;12.372;2023-08-12T08:25:41;24.70;76.50
36374;DHT22;22399;51.346;12.372;2023-08-12T08:28:11;24.70;76.40
36374;DHT22;22399;51.346;12.372;2023-08-12T08:30:39;24.60;76.30
36374;DHT22;22399;51.346;12.372;2023-08-12T08:33:08;24.60;76.40
36374;DHT22;22399;51.346;12.372;2023-08-12T08:35:37;24.50;76.30
36374;DHT22;22399;51.346;12.372;2023-08-12T08:38:06;24.40;76.50
36374;DHT22;22399;51.346;12.372;2023-08-12T08:40:34;24.40;76.80
36374;DHT22;22399;51.346;12.372;2023-08-12T08:43:04;24.20;76.90
36374;DHT22;22399;51.346;12.372;2023-08-12T08:45:37;24.10;77.10
36374;DHT22;22399;51.346;12.372;2023-08-12T08:48:07;24.00;77.40
36374;DHT22;22399;51.346;12.372;2023-08-12T08:50:36;23.90;77.60
36374;DHT22;22399;51.346;12.372;2023-08-12T08:53:06;23.80;77.80
36374;DHT22;22399;51.346;12.372;2023-08-12T08:55:35;23.60;78.40
36374;DHT22;22399;51.346;12.372;2023-08-12T08:58:03;23.50;78.90
36374;DHT22;22399;51.346;12.372;2023-08-12T09:00:32;23.40;79.30
36374;DHT22;22399;51.346;12.372;2023-08-12T09:03:03;23.30;79.60
36374;DHT22;22399;51.346;12.372;2023-08-12T09:05:34;23.30;79.80
36374;DHT22;22399;51.346;12.372;2023-08-12T09:08:04;23.30;79.90
36374;DHT22;22399;51.346;12.372;2023-08-12T09:10:39;23.40;79.90
36374;DHT22;22399;51.346;12.372;2023-08-12T09:13:08;23.50;79.90
36374;DHT22;22399;51.346;12.372;2023-08-12T09:15:36;23.60;79.70
36374;DHT22;22399;51.346;12.372;2023-08-12T09:18:07;23.90;79.50
36374;DHT22;22399;51.346;12.372;2023-08-12T09:20:36;24.10;79.20
36374;DHT22;22399;51.346;12.372;2023-08-12T09:23:04;24.30;78.80
36374;DHT22;22399;51.346;12.372;2023-08-12T09:25:40;24.50;78.40
36374;DHT22;22399;51.346;12.372;2023-08-12T09:28:09;24.70;78.00
36374;DHT22;22399;51.346;12.372;2023-08-12T09:30:38;24.80;77.40
36374;DHT22;22399;51.346;12.372;2023-08-12T09:33:08;24.90;77.20
36374;DHT22;22399;51.346;12.372;2023-08-12T09:35:40;25.00;77.20
36374;DHT22;22399;51.346;12.372;2023-08-12T09:38:12;25.20;77.20
36374;DHT22;22399;51.346;12.372;2023-08-12T09:40:42;25.40;76.70
36374;DHT22;22399;51.346;12.372;2023-08-12T09:43:11;25.70;76.40
36374;DHT22;22399;51.346;12.372;2023-08-12T09:45:40;25.90;75.70
36374;DHT22;22399;51.346;12.372;2023-08-12T09:48:10;26.30;75.40
36374;DHT22;22399;51.346;12.372;2023-08-12T09:50:42;26.70;74.70
36374;DHT22;22399;51.346;12.372;2023-08-12T09:53:10;27.00;73.80
36374;DHT22;22399;51.346;12.372;2023-08-12T09:55:39;27.20;73.20
36374;DHT22;22399;51.346;12.372;2023-08-12T09:58:10;27.40;72.70
36374;DHT22;22399;51.346;12.372;2023-08-12T10:00:39;27.50;72.40
36374;DHT22;22399;51.346;12.372;2023-08-12T10:03:11;27.50;71.70
36374;DHT22;22399;51.346;12.372;2023-08-12T10:05:42;27.50;71.80
36374;DHT22;22399;51.346;12.372;2023-08-12T10:08:13;27.50;71.50
36374;DHT22;22399;51.346;12.372;2023-08-12T10:10:42;27.60;71.40
36374;DHT22;22399;51.346;12.372;2023-08-12T10:13:16;27.60;71.40
36374;DHT22;22399;51.346;12.372;2023-08-12T10:15:45;27.60;71.30
36374;DHT22;22399;51.346;12.372;2023-08-12T10:18:15;27.70;71.00
36374;DHT22;22399;51.346;12.372;2023-08-12T10:20:44;27.90;70.90
36374;DHT22;22399;51.346;12.372;2023-08-12T10:23:15;27.90;70.50
36374;DHT22;22399;51.346;12.372;2023-08-12T10:25:45;27.70;70.40
36374;DHT22;22399;51.346;12.372;2023-08-12T10:28:13;27.50;70.40
36374;DHT22;22399;51.346;12.372;2023-08-12T10:30:42;27.10;70.50
36374;DHT22;22399;51.346;12.372;2023-08-12T10:33:11;26.80;71.00
36374;DHT22;22399;51.346;12.372;2023-08-12T10:35:45;26.50;71.40
36374;DHT22;22399;51.346;12.372;2023-08-12T10:38:17;26.30;72.00
36374;DHT22;22399;51.346;12.372;2023-08-12T10:40:46;26.00;72.20
36374;DHT22;22399;51.346;12.372;2023-08-12T10:43:15;25.90;72.40
36374;DHT22;22399;51.346;12.372;2023-08-12T10:45:47;25.70;72.70
36374;DHT22;22399;51.346;12.372;2023-08-12T10:48:17;25.70;73.00
36374;DHT22;22399;51.346;12.372;2023-08-12T10:50:52;25.50;73.20
36374;DHT22;22399;51.346;12.372;2023-08-12T10:53:26;25.20;73.80
36374;DHT22;22399;51.346;12.372;2023-08-12T10:56:01;25.10;74.40
36374;DHT22;22399;51.346;12.372;2023-08-12T10:58:33;25.10;74.60
36374;DHT22;22399;51.346;12.372;2023-08-12T11:01:02;24.70;75.20
36374;DHT22;22399;51.346;12.372;2023-08-12T11:03:32;24.40;76.10
36374;DHT22;22399;51.346;12.372;2023-08-12T11:06:06;24.20;76.80
36374;DHT22;22399;51.346;12.372;2023-08-12T11:08:35;24.10;77.40
36374;DHT22;22399;51.346;12.372;2023-08-12T11:11:19;24.00;77.60
36374;DHT22;22399;51.346;12.372;2023-08-12T11:13:53;24.10;77.60
36374;DHT22;22399;51.346;12.372;2023-08-12T11:16:31;24.20;77.50
36374;DHT22;22399;51.346;12.372;2023-08-12T11:19:03;24.40;77.40
36374;DHT22;22399;51.346;12.372;2023-08-12T11:21:36;24.50;77.10
36374;DHT22;22399;51.346;12.372;2023-08-12T11:24:08;24.70;76.90
36374;DHT22;22399;51.346;12.372;2023-08-12T11:26:37;24.80;76.80
36374;DHT22;22399;51.346;12.372;2023-08-12T11:29:08;24.90;76.70
36374;DHT22;22399;51.346;12.372;2023-08-12T11:31:37;25.00;76.60
36374;DHT22;22399;51.346;12.372;2023-08-12T11:34:06;25.30;76.40
36374;DHT22;22399;51.346;12.372;2023-08-12T11:36:35;25.50;76.20
36374;DHT22;22399;51.346;12.372;2023-08-12T11:39:04;25.70;75.80
36374;DHT22;22399;51.346;12.372;2023-08-12T11:41:34;25.90;75.50
36374;DHT22;22399;51.346;12.372;2023-08-12T11:44:02;26.10;75.10
36374;DHT22;22399;51.346;12.372;2023-08-12T11:46:32;26.60;74.50
36374;DHT22;22399;51.346;12.372;2023-08-12T11:49:01;26.80;73.20
36374;DHT22;22399;51.346;12.372;2023-08-12T11:51:29;27.30;73.00
36374;DHT22;22399;51.346;12.372;2023-08-12T11:53:59;27.90;72.30
36374;DHT22;22399;51.346;12.372;2023-08-12T11:56:28;28.20;71.30
36374;DHT22;22399;51.346;12.372;2023-08-12T11:58:57;28.30;70.80
36374;DHT22;22399;51.346;12.372;2023-08-12T12:01:26;28.70;70.50
36374;DHT22;22399;51.346;12.372;2023-08-12T12:03:55;29.30;69.70
36374;DHT22;22399;51.346;12.372;2023-08-12T12:06:31;29.60;69.00
36374;DHT22;22399;51.346;12.372;2023-08-12T12:09:06;29.70;68.40
36374;DHT22;22399;51.346;12.372;2023-08-12T12:11:37;29.40;67.80
36374;DHT22;22399;51.346;12.372;2023-08-12T12:14:07;29.40;67.80
36374;DHT22;22399;51.346;12.372;2023-08-12T12:16:41;29.70;67.80
36374;DHT22;22399;51.346;12.372;2023-08-12T12:19:15;29.70;67.10
36374;DHT22;22399;51.346;12.372;2023-08-12T12:21:46;29.70;66.80
36374;DHT22;22399;51.346;12.372;2023-08-12T12:24:15;29.70;66.20
36374;DHT22;22399;51.346;12.372;2023-08-12T12:26:45;29.70;65.70
36374;DHT22;22399;51.346;12.372;2023-08-12T12:29:14;29.60;65.40
36374;DHT22;22399;51.346;12.372;2023-08-12T12:31:42;29.60;64.40
36374;DHT22;22399;51.346;12.372;2023-08-12T12:34:10;29.60;64.00
36374;DHT22;22399;51.346;12.372;2023-08-12T12:36:41;29.70;63.80
36374;DHT22;22399;51.346;12.372;2023-08-12T12:39:10;29.80;63.50
36374;DHT22;22399;51.346;12.372;2023-08-12T12:41:40;30.00;63.10
36374;DHT22;22399;51.346;12.372;2023-08-12T12:44:08;30.10;62.50
36374;DHT22;22399;51.346;12.372;2023-08-12T12:46:37;30.00;61.80
36374;DHT22;22399;51.346;12.372;2023-08-12T12:49:06;29.90;61.60
36374;DHT22;22399;51.346;12.372;2023-08-12T12:51:34;30.00;61.20
36374;DHT22;22399;51.346;12.372;2023-08-12T12:54:03;30.00;60.20
36374;DHT22;22399;51.346;12.372;2023-08-12T12:56:32;30.30;60.10
36374;DHT22;22399;51.346;12.372;2023-08-12T12:59:02;30.40;59.60
36374;DHT22;22399;51.346;12.372;2023-08-12T13:01:31;30.80;59.30
36374;DHT22;22399;51.346;12.372;2023-08-12T13:03:59;30.90;58.50
36374;DHT22;22399;51.346;12.372;2023-08-12T13:06:28;31.10;58.30
36374;DHT22;22399;51.346;12.372;2023-08-12T13:08:56;30.90;57.30
36374;DHT22;22399;51.346;12.372;2023-08-12T13:11:25;31.00;57.30
36374;DHT22;22399;51.346;12.372;2023-08-12T13:13:54;31.10;56.90
36374;DHT22;22399;51.346;12.372;2023-08-12T13:16:23;31.10;57.20
36374;DHT22;22399;51.346;12.372;2023-08-12T13:18:52;30.90;57.40
36374;DHT22;22399;51.346;12.372;2023-08-12T13:21:20;31.10;57.30
36374;DHT22;22399;51.346;12.372;2023-08-12T13:23:49;31.10;57.20
36374;DHT22;22399;51.346;12.372;2023-08-12T13:26:18;31.20;57.00
36374;DHT22;22399;51.346;12.372;2023-08-12T13:28:47;30.80;57.40
36374;DHT22;22399;51.346;12.372;2023-08-12T13:31:15;30.40;57.80
36374;DHT22;22399;51.346;12.372;2023-08-12T13:33:45;30.50;57.90
36374;DHT22;22399;51.346;12.372;2023-08-12T13:36:15;30.90;57.50
36374;DHT22;22399;51.346;12.372;2023-08-12T13:38:43;31.40;57.00
36374;DHT22;22399;51.346;12.372;2023-08-12T13:41:12;32.50;56.60
36374;DHT22;22399;51.346;12.372;2023-08-12T13:43:40;33.40;54.70
36374;DHT22;22399;51.346;12.372;2023-08-12T13:46:09;32.90;54.90
36374;DHT22;22399;51.346;12.372;2023-08-12T13:48:37;32.20;55.50
36374;DHT22;22399;51.346;12.372;2023-08-12T13:51:07;31.80;56.20
36374;DHT22;22399;51.346;12.372;2023-08-12T13:53:36;31.50;56.50
36374;DHT22;22399;51.346;12.372;2023-08-12T13:56:05;31.20;56.50
36374;DHT22;22399;51.346;12.372;2023-08-12T13:58:33;31.20;56.60
36374;DHT22;22399;51.346;12.372;2023-08-12T14:01:02;31.20;56.60
36374;DHT22;22399;51.346;12.372;2023-08-12T14:03:31;31.30;56.40
36374;DHT22;22399;51.346;12.372;2023-08-12T14:06:00;31.30;56.30
36374;DHT22;22399;51.346;12.372;2023-08-12T14:08:30;31.30;56.20
36374;DHT22;22399;51.346;12.372;2023-08-12T14:10:59;31.20;56.00
36374;DHT22;22399;51.346;12.372;2023-08-12T14:13:27;31.20;56.00
36374;DHT22;22399;51.346;12.372;2023-08-12T14:15:56;31.40;55.90
36374;DHT22;22399;51.346;12.372;2023-08-12T14:18:25;31.30;55.60
36374;DHT22;22399;51.346;12.372;2023-08-12T14:20:53;31.50;55.80
36374;DHT22;22399;51.346;12.372;2023-08-12T14:23:22;31.50;55.50
36374;DHT22;22399;51.346;12.372;2023-08-12T14:25:52;31.50;55.60
36374;DHT22;22399;51.346;12.372;2023-08-12T14:28:21;31.20;55.60
36374;DHT22;22399;51.346;12.372;2023-08-12T14:30:49;30.90;55.70
36374;DHT22;22399;51.346;12.372;2023-08-12T14:33:17;30.70;56.00
36374;DHT22;22399;51.346;12.372;2023-08-12T14:35:46;30.70;56.10
36374;DHT22;22399;51.346;12.372;2023-08-12T14:38:14;30.60;56.00
36374;DHT22;22399;51.346;12.372;2023-08-12T14:40:47;30.60;56.00
36374;DHT22;22399;51.346;12.372;2023-08-12T14:43:17;30.70;56.10
36374;DHT22;22399;51.346;12.372;2023-08-12T14:45:45;30.60;56.00
36374;DHT22;22399;51.346;12.372;2023-08-12T14:48:14;30.70;56.10
36374;DHT22;22399;51.346;12.372;2023-08-12T14:50:44;30.80;56.10
36374;DHT22;22399;51.346;12.372;2023-08-12T14:53:12;30.70;56.00
36374;DHT22;22399;51.346;12.372;2023-08-12T14:55:41;30.70;56.10
36374;DHT22;22399;51.346;12.372;2023-08-12T14:58:09;30.60;56.10
36374;DHT22;22399;51.346;12.372;2023-08-12T15:00:39;30.50;56.20
36374;DHT22;22399;51.346;12.372;2023-08-12T15:03:08;30.50;56.40
36374;DHT22;22399;51.346;12.372;2023-08-12T15:05:37;30.50;56.40
36374;DHT22;22399;51.346;12.372;2023-08-12T15:08:06;30.40;56.40
36374;DHT22;22399;51.346;12.372;2023-08-12T15:10:35;30.30;56.50
36374;DHT22;22399;51.346;12.372;2023-08-12T15:13:03;30.20;56.60
36374;DHT22;22399;51.346;12.372;2023-08-12T15:15:32;30.10;56.70
36374;DHT22;22399;51.346;12.372;2023-08-12T15:18:02;30.00;56.80
36374;DHT22;22399;51.346;12.372;2023-08-12T15:20:30;29.90;56.90
36374;DHT22;22399;51.346;12.372;2023-08-12T15:22:59;29.80;57.10
36374;DHT22;22399;51.346;12.372;2023-08-12T15:25:27;29.70;57.20
36374;DHT22;22399;51.346;12.372;2023-08-12T15:27:56;29.60;57.40